Bungo Princess — 3FXV8 — position and weather

sailwx.info

Track history (hours):
 
Tides and Currents Weather Stations Pressure Air Temp Water Temp Dewpoint Dewpoint Depression Visibility Wind Speed Wind Dir Waves Ship Positions

Bungo Princess

Last reported at 2016-May-26 02:28 UTC. Time now 2016-May-26 02:44 UTC.
Position N 35°56' E 140°39'.

Length 103 m; draft 5.2 m.

Type: Cargo ship. MMSI: 355074054.

Date/timePositionNaut miles runAvg speedWind from/ knotsBaromVisibWave heightAir tempDewpointWater temp
2016-May-26 02:28N 35°56' E 140°39'0 0.1
2016-May-26 01:32N 35°56' E 140°39'5 4.7
2016-May-26 00:30N 35°59' E 140°43'2 0.2
2016-May-25 12:20N 36°00' E 140°45'10 8.7
2016-May-25 11:12N 35°55' E 140°55'7813.5
2016-May-25 05:26N 34°51' E 140°01'1614.4
2016-May-25 04:20N 34°43' E 139°45'  
2016-May-22 04:12N 36°60' E 123°39'1315.0
2016-May-22 03:20N 37°12' E 123°35'2513.9
2016-May-22 01:31N 37°32' E 123°16'1313.4
2016-May-22 00:32N 37°40' E 123°03'1712.7
2016-May-21 23:09N 37°50' E 122°44'1013.2
2016-May-21 22:25N 37°55' E 122°34'1413.8
2016-May-21 21:25N 38°01' E 122°18'  
2016-May-19 12:16N 38°36' E 120°55'1013.6
2016-May-19 11:32N 38°32' E 121°07'44511.7
2016-May-17 21:33N 31°18' E 123°05'1513.1
2016-May-17 20:25N 31°08' E 122°53'1112.9
2016-May-17 19:33N 31°01' E 122°43'1313.1
2016-May-17 18:32N 30°60' E 122°27'2613.1
2016-May-17 16:32N 31°06' E 121°57'1413.2
2016-May-17 15:28N 31°16' E 121°45'1111.8
2016-May-17 14:32N 31°23' E 121°35'8 8.4
2016-May-17 13:34N 31°28' E 121°28'9 8.5
2016-May-17 12:33N 31°33' E 121°20'1312.8
2016-May-17 11:33N 31°42' E 121°09'1612.9
2016-May-17 10:21N 31°51' E 120°54'1113.5
2016-May-17 09:30N 32°01' E 120°47'1212.2
2016-May-17 08:32N 32°01' E 120°33'8 8.2
2016-May-17 07:33N 31°58' E 120°24'0 0.0
2016-May-17 00:13N 31°58' E 120°24'  
Track history (hours):
 
Tides and Currents Weather Stations Pressure Air Temp Water Temp Dewpoint Dewpoint Depression Visibility Wind Speed Wind Dir Waves Ship Positions

Bungo Princess

Last reported at 2016-May-26 02:28 UTC. Time now 2016-May-26 02:44 UTC.
Position N 35°56' E 140°39'.

Length 103 m; draft 5.2 m.

Type: Cargo ship. MMSI: 355074054.

Date/timePositionNaut miles runAvg speedWind from/ knotsBaromVisibWave heightAir tempDewpointWater temp
2016-May-26 02:28N 35°56' E 140°39'0 0.1
2016-May-26 01:32N 35°56' E 140°39'5 4.7
2016-May-26 00:30N 35°59' E 140°43'2 0.2
2016-May-25 12:20N 36°00' E 140°45'10 8.7
2016-May-25 11:12N 35°55' E 140°55'7813.5
2016-May-25 05:26N 34°51' E 140°01'1614.4
2016-May-25 04:20N 34°43' E 139°45'  
2016-May-22 04:12N 36°60' E 123°39'1315.0
2016-May-22 03:20N 37°12' E 123°35'2513.9
2016-May-22 01:31N 37°32' E 123°16'1313.4
2016-May-22 00:32N 37°40' E 123°03'1712.7
2016-May-21 23:09N 37°50' E 122°44'1013.2
2016-May-21 22:25N 37°55' E 122°34'1413.8
2016-May-21 21:25N 38°01' E 122°18'  
2016-May-19 12:16N 38°36' E 120°55'1013.6
2016-May-19 11:32N 38°32' E 121°07'44511.7
2016-May-17 21:33N 31°18' E 123°05'1513.1
2016-May-17 20:25N 31°08' E 122°53'1112.9
2016-May-17 19:33N 31°01' E 122°43'1313.1
2016-May-17 18:32N 30°60' E 122°27'2613.1
2016-May-17 16:32N 31°06' E 121°57'1413.2
2016-May-17 15:28N 31°16' E 121°45'1111.8
2016-May-17 14:32N 31°23' E 121°35'8 8.4
2016-May-17 13:34N 31°28' E 121°28'9 8.5
2016-May-17 12:33N 31°33' E 121°20'1312.8
2016-May-17 11:33N 31°42' E 121°09'1612.9
2016-May-17 10:21N 31°51' E 120°54'1113.5
2016-May-17 09:30N 32°01' E 120°47'1212.2
2016-May-17 08:32N 32°01' E 120°33'8 8.2
2016-May-17 07:33N 31°58' E 120°24'0 0.0
2016-May-17 00:13N 31°58' E 120°24'  

Dump ship's entire track history